Time;durP1;ratioP1;P1;durP2;ratioP2;P2;SDS_P1;SDS_P2;PMS_P1;PMS_P2;Temp;Humidity;BMP_temperature;BMP_pressure;BME280_temperature;BME280_humidity;BME280_pressure;Samples;Min_cycle;Max_cycle;Signal;HPM_P1;HPM_P2
2022/05/24 00:01:53;;;;;;;0.60;0.23;;;17.60;1.00;;;;;;5135447;27;20447;-78
2022/05/24 00:04:21;;;;;;;0.70;0.20;;;17.60;1.00;;;;;;5135715;27;20499;-79
2022/05/24 00:06:51;;;;;;;0.60;0.10;;;17.60;1.00;;;;;;5136622;27;20453;-79
2022/05/24 00:09:19;;;;;;;0.80;0.27;;;17.60;1.00;;;;;;5137877;27;20461;-79
2022/05/24 00:11:47;;;;;;;1.37;1.27;;;17.60;1.00;;;;;;5121703;27;21010;-78
2022/05/24 00:14:14;;;;;;;0.60;0.10;;;17.60;1.00;;;;;;5133413;27;20558;-79
2022/05/24 00:16:42;;;;;;;0.70;0.30;;;17.70;1.00;;;;;;5149184;27;20445;-77
2022/05/24 00:19:11;;;;;;;0.80;0.73;;;17.50;1.00;;;;;;5142118;27;20493;-79
2022/05/24 00:21:38;;;;;;;2.53;2.33;;;17.50;1.00;;;;;;5141484;27;20470;-79
2022/05/24 00:24:08;;;;;;;0.60;0.10;;;17.50;1.00;;;;;;5139228;27;20498;-78
2022/05/24 00:26:37;;;;;;;1.00;0.60;;;17.50;1.00;;;;;;5132256;27;20440;-77
2022/05/24 00:29:04;;;;;;;0.60;0.20;;;17.60;1.00;;;;;;5113805;28;20452;-78
2022/05/24 00:31:32;;;;;;;1.30;0.47;;;17.70;1.00;;;;;;5114553;28;20526;-78
2022/05/24 00:34:00;;;;;;;0.90;0.33;;;17.70;1.00;;;;;;5115842;28;20682;-78
2022/05/24 00:36:28;;;;;;;0.93;0.50;;;17.60;1.00;;;;;;5115968;28;20968;-78
2022/05/24 00:38:56;;;;;;;0.60;0.10;;;17.50;1.00;;;;;;5114226;28;20486;-77
2022/05/24 00:41:29;;;;;;;0.60;0.20;;;17.50;1.00;;;;;;5116742;28;20511;-77
2022/05/24 00:44:00;;;;;;;2.50;1.90;;;17.60;1.00;;;;;;5117591;28;20922;-79
2022/05/24 00:46:30;;;;;;;0.60;0.20;;;17.60;1.00;;;;;;5125099;28;20446;-79
2022/05/24 00:49:02;;;;;;;0.60;0.10;;;17.60;1.00;;;;;;5122111;28;20497;-79
2022/05/24 00:51:35;;;;;;;0.60;0.20;;;17.60;1.00;;;;;;5117220;28;20515;-77
2022/05/24 00:54:04;;;;;;;1.60;0.60;;;17.60;1.00;;;;;;5123219;28;20480;-78
2022/05/24 00:56:51;;;;;;;0.90;0.40;;;17.60;1.00;;;;;;5122170;28;20428;-77
2022/05/24 00:59:31;;;;;;;0.83;0.60;;;17.40;1.00;;;;;;5120027;28;20476;-77
2022/05/24 01:02:00;;;;;;;0.60;0.20;;;17.40;1.00;;;;;;5117773;28;20435;-78
2022/05/24 01:04:28;;;;;;;0.60;0.10;;;17.40;1.00;;;;;;5117524;28;20475;-78
2022/05/24 01:06:56;;;;;;;0.60;0.10;;;17.40;1.00;;;;;;5117512;28;20507;-78
2022/05/24 01:09:27;;;;;;;0.70;0.30;;;17.60;1.00;;;;;;5118794;28;20833;-78
2022/05/24 01:12:02;;;;;;;0.60;0.20;;;17.60;1.00;;;;;;5118418;28;20454;-77
2022/05/24 01:14:32;;;;;;;0.60;0.10;;;17.60;1.00;;;;;;5124447;27;20470;-77
2022/05/24 01:17:02;;;;;;;0.60;0.10;;;17.70;1.00;;;;;;5135395;27;20440;-78
2022/05/24 01:19:40;;;;;;;0.70;0.30;;;17.80;1.00;;;;;;5138286;27;20765;-78
2022/05/24 01:22:48;;;;;;;1.10;0.47;;;17.70;1.00;;;;;;5139207;27;20423;-78
2022/05/24 01:25:24;;;;;;;0.60;0.27;;;17.70;1.00;;;;;;5137124;27;20455;-77
2022/05/24 01:27:54;;;;;;;0.60;0.20;;;17.50;1.00;;;;;;5120354;28;20883;-78
2022/05/24 01:30:22;;;;;;;0.90;0.53;;;17.50;1.00;;;;;;5118315;28;20451;-78
2022/05/24 01:38:24;;;;;;;0.60;0.20;;;17.60;1.00;;;;;;5112241;28;20501;-77
2022/05/24 01:40:54;;;;;;;0.80;0.47;;;17.60;1.00;;;;;;5115069;28;20439;-77
2022/05/24 01:43:26;;;;;;;0.60;0.10;;;17.40;1.00;;;;;;5111986;28;20463;-77
2022/05/24 01:45:58;;;;;;;0.60;0.10;;;17.40;1.00;;;;;;5117118;28;20548;-77
2022/05/24 01:48:29;;;;;;;0.60;0.10;;;17.40;1.00;;;;;;5125869;28;20579;-77
2022/05/24 01:50:59;;;;;;;0.60;0.10;;;17.40;1.00;;;;;;5127855;28;20424;-77
2022/05/24 01:53:31;;;;;;;0.80;0.40;;;17.50;1.00;;;;;;5121572;28;20547;-77
2022/05/24 01:56:25;;;;;;;0.60;0.17;;;17.50;1.00;;;;;;5113366;28;20448;-77
2022/05/24 01:58:57;;;;;;;0.60;0.10;;;17.60;1.00;;;;;;5113312;28;20530;-78
2022/05/24 02:01:35;;;;;;;0.60;0.10;;;17.60;1.00;;;;;;5117838;28;20440;-78
2022/05/24 02:04:04;;;;;;;0.60;0.10;;;17.70;1.00;;;;;;5112845;28;20232;-78
2022/05/24 02:06:33;;;;;;;0.60;0.10;;;17.70;1.00;;;;;;5128364;28;20499;-77
2022/05/24 02:09:03;;;;;;;0.60;0.13;;;15.10;1.00;;;;;;5130479;28;20436;-77
2022/05/24 02:11:33;;;;;;;0.60;0.10;;;17.80;1.00;;;;;;5124532;28;20465;-78
2022/05/24 02:14:08;;;;;;;0.60;0.10;;;17.90;1.00;;;;;;5114751;28;20463;-77
2022/05/24 02:16:43;;;;;;;0.60;0.10;;;17.90;1.00;;;;;;5111591;28;20447;-76
2022/05/24 02:19:12;;;;;;;0.60;0.10;;;17.90;1.00;;;;;;5115117;28;20459;-78
2022/05/24 02:21:43;;;;;;;0.60;0.10;;;18.00;1.00;;;;;;5118044;28;20450;-77
2022/05/24 02:24:17;;;;;;;0.60;0.20;;;17.90;1.00;;;;;;5116344;28;20468;-77
2022/05/24 02:26:46;;;;;;;0.60;0.10;;;;;;;;;;5111266;28;20810;-78
2022/05/24 02:29:16;;;;;;;0.60;0.10;;;17.90;1.00;;;;;;5100401;28;20531;-77
2022/05/24 02:31:44;;;;;;;0.60;0.10;;;17.90;1.00;;;;;;5097516;28;20445;-77
2022/05/24 02:34:13;;;;;;;0.60;0.10;;;17.90;1.00;;;;;;5098017;28;20516;-78
2022/05/24 02:36:41;;;;;;;0.60;0.10;;;17.90;1.00;;;;;;5101960;28;20454;-79
2022/05/24 02:39:09;;;;;;;0.60;0.10;;;17.90;1.00;;;;;;5095890;28;20479;-78
2022/05/24 02:41:36;;;;;;;0.60;0.10;;;17.90;1.00;;;;;;5096387;28;20444;-77
2022/05/24 02:44:07;;;;;;;0.60;0.10;;;17.90;1.00;;;;;;5097502;28;20490;-77
2022/05/24 02:46:38;;;;;;;0.60;0.10;;;17.90;1.00;;;;;;5096879;28;20532;-77
2022/05/24 02:49:07;;;;;;;0.60;0.10;;;17.90;1.00;;;;;;5096203;28;20474;-77
2022/05/24 02:51:37;;;;;;;0.60;0.10;;;18.00;1.00;;;;;;5095974;28;20456;-76
2022/05/24 02:54:07;;;;;;;0.60;0.10;;;17.90;1.00;;;;;;5099545;28;20468;-79
2022/05/24 02:56:35;;;;;;;0.60;0.20;;;17.90;1.00;;;;;;5098544;28;20527;-78
2022/05/24 02:59:03;;;;;;;4.10;3.90;;;18.00;1.00;;;;;;5100623;28;20483;-78
2022/05/24 03:01:31;;;;;;;0.60;0.10;;;17.90;1.00;;;;;;5099124;28;20997;-79
2022/05/24 03:04:01;;;;;;;0.60;0.10;;;17.80;1.00;;;;;;5099704;28;20551;-77
2022/05/24 03:09:33;;;;;;;0.60;0.30;;;17.80;1.00;;;;;;5097610;28;20504;-79
2022/05/24 03:09:35;;;;;;;1.10;0.80;;;17.80;1.00;;;;;;5104215;28;20440;-78
2022/05/24 03:14:50;;;;;;;0.60;0.20;;;17.50;1.00;;;;;;5096276;28;20557;-77
2022/05/24 03:17:18;;;;;;;0.60;0.10;;;17.40;1.00;;;;;;5097287;28;20448;-77
2022/05/24 03:19:49;;;;;;;0.60;0.10;;;17.50;1.00;;;;;;5103708;28;20480;-77
2022/05/24 03:22:16;;;;;;;0.60;0.13;;;17.40;1.00;;;;;;5104127;28;20551;-78
2022/05/24 03:24:45;;;;;;;0.63;0.37;;;17.40;1.00;;;;;;5098172;28;20518;-77
2022/05/24 03:27:13;;;;;;;0.60;0.13;;;17.40;1.00;;;;;;5105307;28;20506;-77
2022/05/24 03:29:43;;;;;;;1.03;0.70;;;17.30;1.00;;;;;;5118129;28;20462;-77
2022/05/24 03:32:14;;;;;;;0.60;0.10;;;17.30;1.00;;;;;;5120306;28;20558;-77
2022/05/24 03:34:42;;;;;;;0.60;0.10;;;17.30;1.00;;;;;;5116293;28;20468;-79
2022/05/24 03:37:12;;;;;;;0.77;0.47;;;17.30;1.00;;;;;;5119919;28;20462;-77
2022/05/24 03:39:40;;;;;;;0.60;0.10;;;17.30;1.00;;;;;;5115604;28;20506;-77
2022/05/24 03:42:09;;;;;;;0.60;0.10;;;17.40;1.00;;;;;;5119679;28;20473;-78
2022/05/24 03:44:37;;;;;;;0.60;0.10;;;17.30;1.00;;;;;;5118374;28;20469;-78
2022/05/24 03:47:05;;;;;;;0.60;0.20;;;17.40;1.00;;;;;;5118475;28;20515;-77
2022/05/24 03:49:33;;;;;;;0.60;0.10;;;17.40;1.00;;;;;;5117899;28;20450;-78
2022/05/24 03:52:01;;;;;;;0.60;0.10;;;17.40;1.00;;;;;;5119160;28;20439;-79
2022/05/24 03:54:30;;;;;;;0.60;0.10;;;17.40;1.00;;;;;;5116869;28;20459;-78
2022/05/24 03:59:44;;;;;;;0.80;0.60;;;17.30;1.00;;;;;;5126061;28;20539;-78
2022/05/24 04:02:12;;;;;;;0.60;0.10;;;17.30;1.00;;;;;;5123387;28;20566;-77
2022/05/24 04:04:39;;;;;;;0.60;0.20;;;17.30;1.00;;;;;;5121012;28;20996;-78
2022/05/24 04:07:08;;;;;;;0.60;0.13;;;;;;;;;;5127794;28;20450;-77
2022/05/24 04:09:37;;;;;;;0.60;0.13;;;17.30;1.00;;;;;;5127172;28;20617;-78
2022/05/24 04:12:06;;;;;;;0.60;0.10;;;17.30;1.00;;;;;;5120993;28;20448;-80
2022/05/24 04:14:35;;;;;;;0.60;0.10;;;17.40;1.00;;;;;;5119132;28;20566;-78
2022/05/24 04:17:03;;;;;;;0.60;0.10;;;17.40;1.00;;;;;;5114965;28;20481;-77
2022/05/24 04:19:31;;;;;;;0.60;0.10;;;17.50;1.00;;;;;;5113992;28;20485;-77
2022/05/24 04:21:59;;;;;;;0.60;0.20;;;17.50;1.00;;;;;;5118081;28;20771;-77
2022/05/24 04:24:27;;;;;;;0.60;0.10;;;17.50;1.00;;;;;;5115934;28;20508;-77
2022/05/24 04:26:56;;;;;;;0.60;0.10;;;17.60;1.00;;;;;;5105243;28;20798;-77
2022/05/24 04:29:24;;;;;;;0.60;0.10;;;17.60;1.00;;;;;;5098245;28;20444;-79
2022/05/24 04:31:52;;;;;;;0.60;0.10;;;17.60;1.00;;;;;;5124115;27;20467;-77
2022/05/24 04:34:19;;;;;;;0.60;0.10;;;17.70;1.00;;;;;;5130473;27;20476;-78
2022/05/24 04:36:47;;;;;;;0.80;0.40;;;17.70;1.00;;;;;;5127668;27;20439;-78
2022/05/24 04:39:16;;;;;;;0.60;0.20;;;17.60;1.00;;;;;;5135703;27;20474;-79
2022/05/24 04:44:30;;;;;;;0.60;0.10;;;17.60;1.00;;;;;;5137835;27;20462;-79
2022/05/24 04:47:10;;;;;;;0.60;0.20;;;17.50;1.00;;;;;;5137295;27;20446;-77
2022/05/24 04:49:39;;;;;;;0.77;0.27;;;17.50;1.00;;;;;;5135977;27;20452;-79
2022/05/24 04:52:09;;;;;;;0.60;0.20;;;17.40;1.00;;;;;;5127811;27;20466;-78
2022/05/24 04:54:38;;;;;;;0.60;0.13;;;17.50;1.00;;;;;;5129780;27;20486;-78
2022/05/24 04:57:07;;;;;;;0.60;0.10;;;17.50;1.00;;;;;;5120288;28;20448;-78
2022/05/24 04:59:36;;;;;;;0.60;0.10;;;17.60;1.00;;;;;;5118207;28;20470;-79
2022/05/24 05:02:05;;;;;;;0.80;0.40;;;17.60;1.00;;;;;;5118497;27;20554;-76
2022/05/24 05:04:33;;;;;;;2.10;0.47;;;;;;;;;;5134677;27;20502;-79
2022/05/24 05:07:01;;;;;;;0.60;0.10;;;17.70;1.00;;;;;;5134668;27;20522;-78
2022/05/24 05:09:34;;;;;;;0.60;0.20;;;17.70;1.00;;;;;;5133200;27;20438;-77
2022/05/24 05:12:06;;;;;;;0.60;0.10;;;17.70;1.00;;;;;;5119605;27;20553;-78
2022/05/24 05:14:36;;;;;;;2.47;2.27;;;17.70;1.00;;;;;;5123828;27;20459;-78
2022/05/24 05:17:05;;;;;;;0.60;0.20;;;17.60;1.00;;;;;;5116053;27;20446;-78
2022/05/24 05:19:33;;;;;;;0.70;0.40;;;17.70;1.00;;;;;;5133198;27;20565;-78
2022/05/24 05:22:02;;;;;;;0.60;0.20;;;17.60;1.00;;;;;;5125880;27;20570;-77
2022/05/24 05:24:31;;;;;;;0.60;0.10;;;17.60;1.00;;;;;;5116181;27;20476;-77
2022/05/24 05:26:59;;;;;;;1.20;1.07;;;17.40;1.00;;;;;;5123272;28;20435;-77
2022/05/24 05:32:21;;;;;;;0.70;0.40;;;17.20;1.00;;;;;;5108480;28;20439;-78
2022/05/24 05:34:50;;;;;;;0.70;0.40;;;17.20;1.00;;;;;;5117207;22;20570;-77
2022/05/24 05:37:18;;;;;;;0.60;0.10;;;17.00;1.00;;;;;;5082990;28;20476;-75
2022/05/24 05:39:46;;;;;;;1.60;1.50;;;17.00;1.00;;;;;;5082579;28;20468;-78
2022/05/24 05:42:14;;;;;;;0.80;0.70;;;17.00;1.00;;;;;;5072208;28;20446;-77
2022/05/24 05:44:42;;;;;;;0.97;0.40;;;17.00;1.00;;;;;;5073280;28;20533;-78
2022/05/24 05:47:10;;;;;;;0.60;0.10;;;17.10;1.00;;;;;;5080138;28;20494;-76
2022/05/24 05:49:41;;;;;;;0.60;0.10;;;17.10;1.00;;;;;;5099835;28;20536;-77
2022/05/24 05:52:09;;;;;;;0.60;0.10;;;17.10;1.00;;;;;;5099158;28;20459;-78
2022/05/24 05:54:37;;;;;;;0.60;0.17;;;17.20;1.00;;;;;;5096134;28;20457;-76
2022/05/24 05:57:07;;;;;;;1.87;0.50;;;17.20;1.00;;;;;;5098846;28;20439;-76
2022/05/24 05:59:35;;;;;;;0.90;0.73;;;17.20;1.00;;;;;;5098602;28;20512;-76
2022/05/24 06:02:05;;;;;;;0.70;0.30;;;17.20;1.00;;;;;;5101059;28;20493;-76
2022/05/24 06:04:33;;;;;;;0.60;0.10;;;17.20;1.00;;;;;;5102534;28;20880;-76
2022/05/24 06:07:03;;;;;;;0.60;0.10;;;;;;;;;;5102941;28;20828;-76
2022/05/24 06:09:31;;;;;;;1.20;0.70;;;17.30;1.00;;;;;;5099495;28;20432;-74
2022/05/24 06:11:59;;;;;;;1.10;0.67;;;17.30;1.00;;;;;;5095961;28;20439;-74
2022/05/24 06:14:27;;;;;;;0.60;0.20;;;17.30;1.00;;;;;;5096303;28;20490;-74
2022/05/24 06:17:16;;;;;;;0.60;0.20;;;;;;;;;;5096672;28;20991;-77
2022/05/24 06:19:45;;;;;;;0.87;0.43;;;17.40;1.00;;;;;;5097364;28;20455;-75
2022/05/24 06:22:14;;;;;;;3.00;2.20;;;17.30;1.00;;;;;;5097639;28;20456;-77
2022/05/24 06:24:43;;;;;;;0.70;0.30;;;17.30;1.00;;;;;;5096209;28;20464;-77
2022/05/24 06:27:11;;;;;;;0.87;0.50;;;17.30;1.00;;;;;;5085940;28;20441;-76
2022/05/24 06:29:39;;;;;;;1.23;0.60;;;17.10;1.00;;;;;;5075417;28;20457;-77
2022/05/24 06:32:08;;;;;;;0.60;0.30;;;16.70;1.00;;;;;;5076541;28;20540;-76
2022/05/24 06:34:36;;;;;;;1.30;1.13;;;16.50;1.00;;;;;;5076202;28;20495;-76
2022/05/24 06:37:04;;;;;;;1.27;0.97;;;16.50;1.00;;;;;;5076386;28;20445;-76
2022/05/24 06:39:34;;;;;;;1.20;0.47;;;16.10;1.00;;;;;;5076422;28;20981;-76
2022/05/24 06:42:02;;;;;;;0.60;0.17;;;16.00;1.00;;;;;;5075723;28;20473;-77
2022/05/24 06:44:29;;;;;;;0.60;0.23;;;16.10;1.00;;;;;;5076719;28;20476;-76
2022/05/24 06:46:57;;;;;;;0.60;0.10;;;16.00;1.00;;;;;;5076461;28;20536;-76
2022/05/24 06:49:25;;;;;;;0.60;0.10;;;15.90;1.00;;;;;;5075529;28;20958;-75
2022/05/24 06:51:53;;;;;;;1.20;0.30;;;16.00;1.00;;;;;;5079314;28;20453;-75
2022/05/24 06:54:21;;;;;;;0.60;0.10;;;16.00;1.00;;;;;;5078062;28;20454;-75
2022/05/24 06:56:50;;;;;;;0.60;0.20;;;16.00;1.00;;;;;;5077903;28;20464;-76
2022/05/24 07:04:50;;;;;;;0.60;0.10;;;16.00;1.00;;;;;;5078130;28;20849;-76
2022/05/24 07:07:18;;;;;;;0.60;0.20;;;16.00;1.00;;;;;;5075415;28;20487;-77
2022/05/24 07:09:46;;;;;;;1.67;0.73;;;16.00;1.00;;;;;;5075428;28;20476;-76
2022/05/24 07:12:18;;;;;;;0.63;0.30;;;16.00;1.00;;;;;;5076607;28;21018;-76
2022/05/24 07:14:46;;;;;;;0.70;0.37;;;15.90;1.00;;;;;;5075384;28;20465;-77
2022/05/24 07:17:15;;;;;;;0.70;0.30;;;15.90;1.00;;;;;;5075682;28;20442;-76
2022/05/24 07:19:43;;;;;;;0.90;0.30;;;15.90;1.00;;;;;;5075926;28;20531;-75
2022/05/24 07:22:12;;;;;;;0.60;0.23;;;15.90;1.00;;;;;;5076207;28;20477;-76
2022/05/24 07:24:40;;;;;;;10.03;0.40;;;15.90;1.00;;;;;;5076204;28;20518;-76
2022/05/24 07:27:11;;;;;;;0.70;0.20;;;15.90;1.00;;;;;;5084818;28;20445;-75
2022/05/24 07:29:41;;;;;;;0.80;0.20;;;16.00;1.00;;;;;;5095972;28;20461;-76
2022/05/24 07:32:10;;;;;;;0.60;0.10;;;16.00;1.00;;;;;;5096917;28;20443;-76
2022/05/24 07:34:38;;;;;;;0.70;0.40;;;;;;;;;;5093973;28;20891;-76
2022/05/24 07:37:09;;;;;;;0.60;0.20;;;16.10;1.00;;;;;;5093941;28;20896;-77
2022/05/24 07:39:36;;;;;;;0.60;0.30;;;16.20;1.00;;;;;;5094221;28;20523;-76
2022/05/24 07:47:52;;;;;;;0.60;0.20;;;16.20;1.00;;;;;;5051607;28;20494;-77
2022/05/24 07:50:29;;;;;;;0.80;0.30;;;16.10;1.00;;;;;;5085537;28;20470;-77
2022/05/24 07:53:02;;;;;;;0.60;0.20;;;;;;;;;;5094829;28;20206;-76
2022/05/24 07:55:31;;;;;;;0.60;0.10;;;16.20;1.00;;;;;;5095128;28;20559;-75
2022/05/24 07:57:59;;;;;;;0.60;0.10;;;;;;;;;;5094647;28;20551;-75
2022/05/24 08:00:29;;;;;;;0.97;0.50;;;16.20;1.00;;;;;;5094316;28;20503;-76
2022/05/24 08:02:57;;;;;;;0.80;0.23;;;16.20;1.00;;;;;;5094886;28;20447;-76
2022/05/24 08:05:25;;;;;;;0.70;0.40;;;16.20;1.00;;;;;;5094306;28;20568;-77
2022/05/24 08:07:54;;;;;;;0.60;0.10;;;16.20;1.00;;;;;;5093889;28;20480;-76
2022/05/24 08:10:44;;;;;;;0.60;0.10;;;;;;;;;;5094021;28;20455;-76
2022/05/24 08:13:14;;;;;;;0.60;0.27;;;16.40;1.00;;;;;;5086984;28;20470;-76
2022/05/24 08:15:44;;;;;;;1.10;0.83;;;16.50;1.00;;;;;;5095137;28;20479;-76
2022/05/24 08:18:11;;;;;;;0.60;0.20;;;16.70;1.00;;;;;;5115139;28;20456;-75
2022/05/24 08:20:40;;;;;;;0.60;0.10;;;16.70;1.00;;;;;;5115314;28;20474;-76
2022/05/24 08:23:08;;;;;;;1.03;0.30;;;16.90;1.00;;;;;;5116045;28;20444;-76
2022/05/24 08:25:39;;;;;;;0.70;0.30;;;;;;;;;;5115782;28;20452;-76
2022/05/24 08:28:08;;;;;;;1.00;0.30;;;17.10;1.00;;;;;;5096926;28;20716;-77
2022/05/24 08:30:38;;;;;;;0.60;0.30;;;17.20;1.00;;;;;;5094369;28;20433;-75
2022/05/24 08:33:07;;;;;;;0.60;0.20;;;17.20;1.00;;;;;;5094950;28;20472;-75
2022/05/24 08:35:37;;;;;;;0.60;0.17;;;17.10;1.00;;;;;;5093781;28;20469;-77
2022/05/24 08:38:07;;;;;;;0.80;0.37;;;17.10;1.00;;;;;;5095225;28;20495;-76
2022/05/24 08:40:36;;;;;;;0.60;0.10;;;17.10;1.00;;;;;;5093606;28;20445;-76
2022/05/24 08:43:33;;;;;;;0.67;0.30;;;17.10;1.00;;;;;;5094015;28;20480;-76
2022/05/24 08:48:52;;;;;;;0.60;0.10;;;17.00;1.00;;;;;;5093263;28;20451;-76
2022/05/24 08:51:24;;;;;;;0.60;0.10;;;17.10;1.00;;;;;;5093296;28;20444;-78
2022/05/24 08:53:56;;;;;;;0.70;0.30;;;17.20;1.00;;;;;;5093538;28;21032;-77
2022/05/24 08:56:29;;;;;;;0.60;0.10;;;17.10;1.00;;;;;;5092696;28;20552;-76
2022/05/24 08:59:02;;;;;;;0.60;0.10;;;17.10;1.00;;;;;;5093177;28;20436;-76
2022/05/24 09:01:32;;;;;;;0.60;0.10;;;17.30;1.00;;;;;;5093070;28;20510;-76
2022/05/24 09:04:05;;;;;;;0.60;0.20;;;17.30;1.00;;;;;;5092746;28;20459;-77
2022/05/24 09:06:44;;;;;;;0.60;0.20;;;17.30;1.00;;;;;;5092786;28;20487;-76
2022/05/24 09:09:33;;;;;;;0.60;0.10;;;17.30;1.00;;;;;;5092520;28;20455;-76
2022/05/24 09:12:25;;;;;;;0.60;0.10;;;17.40;1.00;;;;;;5093680;28;20433;-75
2022/05/24 09:15:06;;;;;;;0.60;0.20;;;17.70;1.00;;;;;;5092371;28;20556;-76
2022/05/24 09:17:44;;;;;;;0.60;0.20;;;17.70;1.00;;;;;;5092128;28;20436;-77
2022/05/24 09:20:27;;;;;;;0.60;0.10;;;17.80;99.90;;;;;;5092297;28;20444;-77
2022/05/24 09:23:00;;;;;;;0.60;0.10;;;18.00;99.90;;;;;;5092103;28;21102;-77
2022/05/24 09:25:29;;;;;;;0.80;0.20;;;18.00;99.90;;;;;;5092750;28;20595;-78
2022/05/24 09:27:56;;;;;;;0.60;0.10;;;18.00;99.90;;;;;;5077515;28;20959;-77
2022/05/24 09:30:36;;;;;;;0.60;0.20;;;18.10;99.90;;;;;;5073819;28;20978;-78
2022/05/24 09:33:24;;;;;;;0.60;0.10;;;18.20;99.90;;;;;;5073061;28;20536;-77
2022/05/24 09:35:58;;;;;;;0.60;0.10;;;18.30;99.90;;;;;;5072186;28;20851;-76
2022/05/24 09:38:34;;;;;;;0.60;0.20;;;18.40;99.90;;;;;;5075890;28;20820;-77
2022/05/24 09:41:11;;;;;;;0.80;0.30;;;18.60;99.90;;;;;;5076889;28;20803;-76
2022/05/24 09:43:40;;;;;;;0.60;0.20;;;18.60;99.90;;;;;;5077097;28;20488;-75
2022/05/24 09:46:11;;;;;;;0.70;0.37;;;18.60;99.90;;;;;;5076378;28;20573;-76
2022/05/24 09:48:53;;;;;;;0.60;0.10;;;18.70;99.90;;;;;;5076995;28;20449;-76
2022/05/24 09:51:27;;;;;;;0.60;0.20;;;18.90;99.90;;;;;;5075494;28;20465;-76
2022/05/24 09:53:56;;;;;;;0.70;0.30;;;18.90;99.90;;;;;;5075918;28;20453;-76
2022/05/24 09:56:29;;;;;;;0.60;0.10;;;18.90;99.90;;;;;;5075073;28;20456;-77
2022/05/24 09:59:05;;;;;;;0.60;0.10;;;18.70;99.90;;;;;;5076027;28;20441;-76
2022/05/24 10:01:36;;;;;;;0.60;0.10;;;18.70;99.90;;;;;;5077584;28;20528;-76
2022/05/24 10:04:16;;;;;;;0.60;0.20;;;18.60;99.90;;;;;;5076331;28;20552;-77
2022/05/24 10:06:54;;;;;;;0.73;0.30;;;18.40;99.90;;;;;;5075688;28;20449;-78
2022/05/24 10:09:49;;;;;;;0.60;0.20;;;18.40;99.90;;;;;;5075950;28;21003;-77
2022/05/24 10:12:33;;;;;;;0.63;0.20;;;18.50;99.90;;;;;;5076555;28;20418;-78
2022/05/24 10:15:13;;;;;;;1.10;0.30;;;18.50;99.90;;;;;;5076467;28;20472;-77
2022/05/24 10:17:51;;;;;;;1.17;0.93;;;18.80;99.90;;;;;;5077112;28;20217;-77
2022/05/24 10:20:24;;;;;;;0.70;0.30;;;19.00;99.90;;;;;;5080155;28;20442;-77
2022/05/24 10:23:05;;;;;;;0.70;0.40;;;19.00;99.90;;;;;;5076101;28;20481;-77
2022/05/24 10:25:40;;;;;;;0.70;0.30;;;19.10;99.90;;;;;;5076658;28;20483;-77
2022/05/24 10:28:20;;;;;;;0.60;0.17;;;19.30;99.90;;;;;;5096737;28;20457;-76
2022/05/24 10:31:01;;;;;;;0.60;0.10;;;19.30;99.90;;;;;;5099648;28;20479;-74
2022/05/24 10:39:28;;;;;;;0.60;0.10;;;19.50;99.90;;;;;;5098418;28;20437;-77
2022/05/24 10:42:07;;;;;;;0.60;0.13;;;19.40;99.90;;;;;;5099039;28;20910;-77
2022/05/24 10:44:43;;;;;;;0.60;0.20;;;19.20;99.90;;;;;;5103035;28;20535;-75
2022/05/24 10:47:24;;;;;;;0.60;0.10;;;19.10;99.90;;;;;;5102889;28;20450;-78
2022/05/24 10:49:56;;;;;;;0.60;0.10;;;19.20;99.90;;;;;;5098088;28;20439;-76
2022/05/24 10:52:34;;;;;;;0.70;0.40;;;19.20;99.90;;;;;;5097363;28;20456;-76
2022/05/24 10:55:12;;;;;;;0.60;0.20;;;19.00;99.90;;;;;;5098618;28;20479;-77
2022/05/24 10:57:44;;;;;;;0.60;0.10;;;19.30;99.90;;;;;;5097930;28;20445;-76
2022/05/24 11:00:15;;;;;;;0.60;0.10;;;19.30;99.90;;;;;;5097423;28;20444;-76
2022/05/24 11:02:49;;;;;;;0.70;0.20;;;19.50;99.90;;;;;;5099948;28;20539;-77
2022/05/24 11:05:22;;;;;;;0.60;0.10;;;19.50;99.90;;;;;;5099625;28;20464;-77
2022/05/24 11:07:56;;;;;;;0.70;0.30;;;17.80;99.90;;;;;;5098435;28;20978;-77
2022/05/24 11:10:31;;;;;;;3.47;0.57;;;19.60;99.90;;;;;;5099760;28;20536;-76
2022/05/24 11:13:09;;;;;;;0.60;0.10;;;19.50;99.90;;;;;;5100556;28;20496;-75
2022/05/24 11:15:41;;;;;;;0.60;0.10;;;19.60;99.90;;;;;;5099536;28;20468;-76
2022/05/24 11:18:14;;;;;;;0.70;0.20;;;19.70;99.90;;;;;;5097836;28;21030;-78
2022/05/24 11:20:47;;;;;;;2.10;0.47;;;20.10;99.90;;;;;;5096054;28;20428;-77
2022/05/24 11:23:18;;;;;;;0.60;0.10;;;19.60;99.90;;;;;;5095331;28;20486;-75
2022/05/24 11:25:51;;;;;;;0.93;0.67;;;19.50;99.90;;;;;;5095238;28;20456;-76
2022/05/24 11:28:23;;;;;;;2.50;0.93;;;19.20;99.90;;;;;;5095257;28;20488;-74
2022/05/24 11:30:53;;;;;;;1.13;0.30;;;19.20;99.90;;;;;;5096631;28;20476;-76
2022/05/24 11:33:41;;;;;;;0.60;0.20;;;19.00;99.90;;;;;;5099281;28;20506;-76
2022/05/24 11:36:27;;;;;;;3.90;0.80;;;19.10;99.90;;;;;;5136818;22;20850;-78
2022/05/24 11:38:57;;;;;;;0.60;0.13;;;19.20;99.90;;;;;;5116631;28;20454;-78
2022/05/24 11:41:32;;;;;;;0.60;0.10;;;19.10;99.90;;;;;;5114910;28;20475;-76
2022/05/24 11:44:04;;;;;;;0.70;0.20;;;19.20;99.90;;;;;;5113555;28;20488;-77
2022/05/24 11:46:46;;;;;;;0.60;0.10;;;19.40;99.90;;;;;;5115255;28;20468;-77
2022/05/24 11:49:48;;;;;;;0.60;0.20;;;19.60;99.90;;;;;;5114341;28;20930;-78
2022/05/24 11:52:46;;;;;;;0.87;0.40;;;20.00;99.90;;;;;;5115051;28;20482;-76
2022/05/24 11:55:52;;;;;;;0.60;0.27;;;19.90;99.90;;;;;;5108980;28;20466;-76
2022/05/24 11:58:44;;;;;;;0.70;0.30;;;19.80;99.90;;;;;;5105572;28;20961;-77
2022/05/24 12:01:34;;;;;;;0.60;0.10;;;19.60;99.90;;;;;;5114895;28;20884;-77
2022/05/24 12:10:56;;;;;;;0.70;0.20;;;19.40;99.90;;;;;;5115111;28;20496;-77
2022/05/24 12:13:38;;;;;;;1.23;1.13;;;19.40;99.90;;;;;;5116648;28;20446;-77
2022/05/24 12:16:24;;;;;;;0.60;0.20;;;19.30;99.90;;;;;;5113478;28;20847;-77
2022/05/24 12:18:59;;;;;;;0.60;0.10;;;19.40;99.90;;;;;;5113401;28;20440;-77
2022/05/24 12:21:56;;;;;;;0.60;0.17;;;19.60;99.90;;;;;;5113536;28;20442;-77
2022/05/24 12:24:56;;;;;;;0.60;0.10;;;19.60;99.90;;;;;;5105638;28;20483;-76
2022/05/24 12:27:34;;;;;;;0.80;0.40;;;19.50;99.90;;;;;;5127404;27;20434;-77
2022/05/24 12:30:28;;;;;;;0.60;0.10;;;19.60;99.90;;;;;;5134700;27;20445;-76
2022/05/24 12:33:13;;;;;;;0.60;0.10;;;19.80;99.90;;;;;;5136045;27;20529;-77
2022/05/24 12:35:51;;;;;;;0.83;0.30;;;20.40;99.90;;;;;;5133590;27;20578;-76
2022/05/24 12:38:23;;;;;;;0.70;0.20;;;20.50;99.90;;;;;;5133386;27;20832;-76
2022/05/24 12:41:05;;;;;;;0.67;0.20;;;20.40;99.90;;;;;;5133474;27;20435;-76
2022/05/24 12:43:50;;;;;;;0.70;0.20;;;20.40;99.90;;;;;;5132041;27;20850;-78
2022/05/24 12:46:18;;;;;;;0.70;0.10;;;20.30;99.90;;;;;;5132955;27;20468;-77
2022/05/24 12:48:50;;;;;;;0.70;0.10;;;20.20;99.90;;;;;;5132704;27;20461;-77
2022/05/24 12:51:20;;;;;;;0.70;0.10;;;20.10;99.90;;;;;;5132893;27;20450;-78
2022/05/24 12:53:50;;;;;;;0.70;0.13;;;20.10;99.90;;;;;;5135592;27;20922;-77
2022/05/24 12:56:22;;;;;;;0.63;0.10;;;20.20;99.90;;;;;;5134658;27;20471;-78
2022/05/24 12:58:51;;;;;;;0.70;0.20;;;20.20;99.90;;;;;;5133755;27;20495;-79
2022/05/24 13:01:23;;;;;;;0.70;0.10;;;20.20;99.90;;;;;;5142695;27;20431;-77
2022/05/24 13:04:02;;;;;;;0.70;0.10;;;20.30;99.90;;;;;;5133638;27;20478;-79
2022/05/24 13:06:32;;;;;;;0.70;0.10;;;20.40;99.90;;;;;;5134306;27;20522;-77
2022/05/24 13:09:25;;;;;;;0.70;0.10;;;20.60;99.90;;;;;;5133779;27;20950;-78
2022/05/24 13:11:56;;;;;;;0.70;0.30;;;20.50;99.90;;;;;;5115080;27;20447;-78
2022/05/24 13:14:57;;;;;;;0.60;0.10;;;20.30;99.90;;;;;;5132473;27;20450;-76
2022/05/24 13:17:27;;;;;;;0.70;0.20;;;20.30;99.90;;;;;;5131894;27;20549;-76
2022/05/24 13:20:00;;;;;;;0.70;0.20;;;20.00;99.90;;;;;;5135175;27;20455;-76
2022/05/24 13:22:40;;;;;;;1.37;0.40;;;20.00;99.90;;;;;;5132875;27;20439;-76
2022/05/24 13:25:14;;;;;;;0.67;0.20;;;20.30;99.90;;;;;;5131819;27;20991;-76
2022/05/24 13:27:55;;;;;;;0.70;0.20;;;20.30;99.90;;;;;;5118007;27;20439;-77
2022/05/24 13:33:36;;;;;;;0.80;0.30;;;20.40;99.90;;;;;;5112138;28;20439;-78
2022/05/24 13:36:19;;;;;;;0.70;0.10;;;20.50;99.90;;;;;;5111477;28;20983;-76
2022/05/24 13:38:50;;;;;;;0.70;0.17;;;20.60;99.90;;;;;;5112359;28;20543;-77
2022/05/24 13:41:30;;;;;;;0.70;0.10;;;20.60;99.90;;;;;;5113641;28;20815;-77
2022/05/24 13:44:11;;;;;;;0.70;0.10;;;20.80;99.90;;;;;;5111372;28;20618;-78
2022/05/24 13:46:52;;;;;;;0.70;0.10;;;21.10;99.90;;;;;;5113268;28;20470;-78
2022/05/24 13:49:36;;;;;;;0.70;0.10;;;21.10;99.90;;;;;;5113485;28;20416;-78
2022/05/24 13:52:28;;;;;;;0.70;0.30;;;21.10;99.90;;;;;;5113684;28;20444;-77
2022/05/24 13:55:18;;;;;;;0.60;0.10;;;20.90;99.90;;;;;;5111826;28;20458;-78
2022/05/24 13:57:53;;;;;;;0.80;0.30;;;21.00;99.90;;;;;;5111535;28;20439;-78
2022/05/24 14:00:33;;;;;;;0.70;0.30;;;21.10;99.90;;;;;;5112374;28;20427;-77
2022/05/24 14:03:19;;;;;;;0.70;0.20;;;21.10;99.90;;;;;;5112187;28;20439;-77
2022/05/24 14:05:51;;;;;;;4.47;0.50;;;20.90;99.90;;;;;;5111491;28;20483;-78
2022/05/24 14:08:21;;;;;;;0.70;0.20;;;20.50;99.90;;;;;;5112072;28;20454;-77
2022/05/24 14:10:48;;;;;;;0.70;0.20;;;20.50;99.90;;;;;;5112277;28;20455;-77
2022/05/24 14:13:16;;;;;;;0.70;0.10;;;20.60;99.90;;;;;;5112241;28;20997;-77